createdAt,value
2024-01-15T00:00:59.177Z,20.30
2024-01-15T00:03:48.109Z,20.70
2024-01-15T00:06:16.682Z,21.10
2024-01-15T00:08:44.878Z,20.70
2024-01-15T00:11:13.030Z,20.30
2024-01-15T00:13:41.116Z,20.80
2024-01-15T00:16:09.132Z,20.80
2024-01-15T00:18:37.620Z,18.20
2024-01-15T00:21:06.232Z,20.80
2024-01-15T00:23:34.283Z,5.40
2024-01-15T00:26:02.760Z,21.80
2024-01-15T00:28:30.988Z,21.40
2024-01-15T00:30:59.131Z,22.00
2024-01-15T00:33:27.419Z,21.70
2024-01-15T00:35:55.595Z,21.70
2024-01-15T00:38:23.812Z,22.30
2024-01-15T00:40:51.911Z,22.40
2024-01-15T00:43:20.566Z,21.00
2024-01-15T00:45:48.687Z,20.10
2024-01-15T00:48:17.079Z,5.10
2024-01-15T00:50:45.300Z,20.50
2024-01-15T00:53:13.466Z,21.20
2024-01-15T00:55:41.646Z,4.60
2024-01-15T00:58:09.680Z,5.30
2024-01-15T01:00:37.944Z,20.30
2024-01-15T01:03:06.312Z,19.20
2024-01-15T01:05:35.534Z,19.10
2024-01-15T01:08:03.777Z,19.50
2024-01-15T01:10:31.842Z,4.10
2024-01-15T01:12:59.985Z,20.60
2024-01-15T01:15:28.830Z,19.20
2024-01-15T01:17:57.021Z,20.10
2024-01-15T01:20:25.283Z,2.80
2024-01-15T01:22:53.441Z,19.10
2024-01-15T01:25:21.655Z,19.40
2024-01-15T01:27:49.924Z,3.60
2024-01-15T01:30:18.231Z,19.20
2024-01-15T01:32:46.375Z,17.70
2024-01-15T01:35:14.560Z,17.40
2024-01-15T01:37:42.621Z,18.70
2024-01-15T01:40:11.030Z,19.30
2024-01-15T01:42:39.120Z,18.30
2024-01-15T01:45:07.705Z,18.30
2024-01-15T01:47:36.334Z,17.80
2024-01-15T01:50:04.673Z,17.40
2024-01-15T01:52:33.323Z,18.50
2024-01-15T01:55:03.530Z,17.70
2024-01-15T01:57:35.264Z,18.80
2024-01-15T02:00:05.421Z,4.60
2024-01-15T02:02:34.719Z,18.00
2024-01-15T02:05:05.367Z,16.20
2024-01-15T02:07:36.126Z,16.00
2024-01-15T02:12:32.842Z,5.00
2024-01-15T02:15:01.036Z,15.20
2024-01-15T02:17:29.200Z,17.10
2024-01-15T02:19:57.459Z,16.90
2024-01-15T02:22:25.648Z,16.10
2024-01-15T02:24:53.986Z,14.90
2024-01-15T02:27:22.264Z,15.60
2024-01-15T02:29:50.729Z,16.00
2024-01-15T02:32:18.792Z,16.90
2024-01-15T02:34:47.144Z,3.80
2024-01-15T02:37:15.336Z,16.20
2024-01-15T02:39:43.426Z,17.20
2024-01-15T02:42:11.588Z,16.30
2024-01-15T02:44:39.721Z,16.40
2024-01-15T02:47:07.786Z,16.50
2024-01-15T02:49:36.094Z,16.10
2024-01-15T02:52:04.636Z,16.10
2024-01-15T02:54:32.721Z,17.00
2024-01-15T02:57:00.895Z,17.40
2024-01-15T02:59:28.957Z,16.00
2024-01-15T03:01:57.036Z,17.40
2024-01-15T03:04:25.222Z,16.20
2024-01-15T03:06:53.412Z,17.00
2024-01-15T03:09:21.585Z,17.10
2024-01-15T03:11:50.049Z,17.80
2024-01-15T03:14:18.077Z,17.40
2024-01-15T03:16:46.197Z,17.40
2024-01-15T03:19:14.438Z,16.10
2024-01-15T03:21:42.711Z,17.30
2024-01-15T03:24:10.864Z,16.90
2024-01-15T03:26:39.019Z,17.50
2024-01-15T03:29:07.469Z,16.50
2024-01-15T03:31:35.575Z,16.20
2024-01-15T03:34:03.745Z,16.10
2024-01-15T03:36:31.956Z,16.40
2024-01-15T03:39:00.020Z,16.40
2024-01-15T03:41:28.085Z,17.30
2024-01-15T03:43:56.157Z,16.90
2024-01-15T03:46:24.239Z,17.70
2024-01-15T03:48:52.624Z,16.10
2024-01-15T03:51:21.007Z,15.70
2024-01-15T03:53:49.199Z,15.20
2024-01-15T03:56:17.376Z,15.10
2024-01-15T03:58:45.469Z,14.90
2024-01-15T04:01:13.671Z,15.20
2024-01-15T04:03:41.994Z,15.10
2024-01-15T04:06:10.278Z,16.00
2024-01-15T04:08:38.368Z,15.60
2024-01-15T04:11:06.406Z,16.00
2024-01-15T04:13:34.943Z,16.10
2024-01-15T04:16:03.135Z,16.00
2024-01-15T04:18:31.204Z,15.20
2024-01-15T04:20:59.528Z,16.20
2024-01-15T04:23:27.641Z,16.40
2024-01-15T04:25:55.841Z,14.80
2024-01-15T04:28:24.076Z,14.50
2024-01-15T04:30:52.283Z,16.10
2024-01-15T04:33:20.569Z,15.50
2024-01-15T04:35:48.884Z,15.80
2024-01-15T04:38:17.038Z,15.90
2024-01-15T04:40:45.310Z,15.70
2024-01-15T04:43:13.503Z,15.70
2024-01-15T04:45:41.852Z,14.50
2024-01-15T04:48:10.094Z,14.50
2024-01-15T04:50:38.296Z,13.80
2024-01-15T04:53:07.507Z,14.40
2024-01-15T04:55:36.598Z,14.80
2024-01-15T04:58:04.887Z,14.40
2024-01-15T05:00:33.059Z,12.90
2024-01-15T05:03:01.205Z,14.20
2024-01-15T05:05:29.300Z,13.10
2024-01-15T05:07:58.165Z,12.90
2024-01-15T05:10:26.651Z,12.20
2024-01-15T05:12:54.838Z,12.30
2024-01-15T05:15:22.943Z,13.80
2024-01-15T05:17:51.170Z,11.70
2024-01-15T05:20:19.389Z,13.50
2024-01-15T05:22:47.613Z,13.60
2024-01-15T05:25:15.715Z,14.90
2024-01-15T05:27:43.873Z,15.10
2024-01-15T05:30:12.520Z,17.10
2024-01-15T05:32:41.031Z,15.30
2024-01-15T05:35:09.233Z,14.30
2024-01-15T05:37:37.449Z,17.80
2024-01-15T05:40:06.042Z,16.80
2024-01-15T05:42:34.225Z,15.30
2024-01-15T05:45:04.984Z,17.70
2024-01-15T05:50:03.117Z,19.20
2024-01-15T05:52:31.320Z,17.30
2024-01-15T05:54:59.474Z,17.30
2024-01-15T05:57:27.799Z,16.50
2024-01-15T05:59:55.948Z,17.50
2024-01-15T06:02:24.100Z,16.40
2024-01-15T06:04:52.302Z,16.40
2024-01-15T06:07:20.436Z,16.50
2024-01-15T06:09:48.621Z,16.30
2024-01-15T06:12:16.813Z,15.40
2024-01-15T06:14:44.941Z,15.80
2024-01-15T06:17:13.080Z,15.20
2024-01-15T06:19:41.261Z,15.80
2024-01-15T06:22:09.364Z,15.00
2024-01-15T06:24:37.488Z,15.30
2024-01-15T06:27:05.710Z,19.60
2024-01-15T06:29:34.134Z,18.20
2024-01-15T06:32:02.319Z,15.60
2024-01-15T06:34:30.415Z,15.00
2024-01-15T06:36:58.585Z,5.00
2024-01-15T06:39:26.866Z,16.00
2024-01-15T06:41:55.039Z,14.60
2024-01-15T06:44:23.173Z,16.40
2024-01-15T06:46:53.018Z,15.70
2024-01-15T06:49:21.111Z,15.90
2024-01-15T06:51:49.898Z,15.30
2024-01-15T06:54:18.118Z,15.50
2024-01-15T06:56:46.380Z,14.90
2024-01-15T06:59:17.550Z,15.00
2024-01-15T07:01:47.786Z,15.00
2024-01-15T07:04:16.043Z,14.30
2024-01-15T07:06:44.301Z,14.40
2024-01-15T07:09:12.516Z,14.50
2024-01-15T07:11:45.796Z,14.30
2024-01-15T07:14:14.173Z,14.50
2024-01-15T07:16:43.763Z,13.80
2024-01-15T07:19:13.580Z,14.10
2024-01-15T07:21:43.772Z,15.30
2024-01-15T07:24:12.191Z,14.30
2024-01-15T07:26:40.851Z,14.60
2024-01-15T07:29:09.744Z,14.40
2024-01-15T07:31:38.028Z,15.10
2024-01-15T07:34:06.335Z,15.90
2024-01-15T07:36:34.581Z,15.10
2024-01-15T07:39:02.712Z,15.30
2024-01-15T07:41:30.809Z,15.40
2024-01-15T07:43:58.840Z,14.90
2024-01-15T07:46:26.925Z,14.70
2024-01-15T07:48:57.873Z,15.20
2024-01-15T07:51:26.120Z,14.60
2024-01-15T07:53:56.361Z,15.00
2024-01-15T07:56:24.578Z,15.30
2024-01-15T07:58:52.749Z,16.40
2024-01-15T08:01:20.921Z,15.00
2024-01-15T08:03:49.453Z,16.10
2024-01-15T08:06:17.951Z,16.10
2024-01-15T08:08:46.266Z,16.40
2024-01-15T08:11:14.378Z,16.70
2024-01-15T08:13:42.444Z,15.40
2024-01-15T08:16:10.705Z,17.00
2024-01-15T08:18:38.937Z,16.10
2024-01-15T08:21:07.094Z,15.10
2024-01-15T08:23:36.141Z,14.30
2024-01-15T08:26:04.502Z,13.70
2024-01-15T08:28:32.549Z,13.50
2024-01-15T08:31:00.820Z,14.10
2024-01-15T08:33:29.215Z,14.30
2024-01-15T08:35:57.422Z,15.00
2024-01-15T08:38:26.713Z,15.90
2024-01-15T08:40:58.085Z,15.60
2024-01-15T08:43:26.361Z,15.10
2024-01-15T08:45:54.858Z,15.30
2024-01-15T08:48:22.976Z,14.90
2024-01-15T08:50:53.067Z,16.80
2024-01-15T08:53:21.853Z,16.50
2024-01-15T08:55:50.644Z,15.50
2024-01-15T08:58:19.231Z,16.40
2024-01-15T09:00:47.472Z,17.30
2024-01-15T09:03:15.790Z,17.20
2024-01-15T09:05:44.146Z,17.50
2024-01-15T09:08:12.177Z,17.60
2024-01-15T09:10:40.280Z,17.80
2024-01-15T09:13:09.460Z,18.60
2024-01-15T09:15:37.627Z,18.80
2024-01-15T09:18:08.267Z,18.30
2024-01-15T09:20:36.987Z,17.10
2024-01-15T09:23:05.470Z,18.00
2024-01-15T09:25:33.713Z,17.90
2024-01-15T09:28:01.952Z,17.40
2024-01-15T09:30:30.109Z,16.20
2024-01-15T09:32:58.726Z,17.30
2024-01-15T09:35:26.913Z,17.40
2024-01-15T09:37:54.969Z,16.50
2024-01-15T09:40:23.203Z,16.80
2024-01-15T09:42:52.174Z,16.10
2024-01-15T09:45:20.785Z,15.90
2024-01-15T09:47:48.952Z,16.70
2024-01-15T09:50:18.096Z,16.30
2024-01-15T09:52:47.238Z,16.20
2024-01-15T09:55:17.537Z,16.10
2024-01-15T09:57:47.785Z,15.20
2024-01-15T10:00:19.555Z,16.90
2024-01-15T10:02:48.332Z,15.90
2024-01-15T10:05:16.869Z,16.30
2024-01-15T10:07:47.126Z,16.70
2024-01-15T10:10:15.576Z,16.20
2024-01-15T10:12:43.958Z,18.00
2024-01-15T10:15:13.238Z,16.40
2024-01-15T10:17:42.117Z,17.50
2024-01-15T10:20:12.534Z,17.30
2024-01-15T10:22:43.359Z,16.40
2024-01-15T10:27:41.484Z,14.40
2024-01-15T10:30:11.269Z,15.60
2024-01-15T10:32:39.527Z,14.80
2024-01-15T10:35:09.898Z,14.40
2024-01-15T10:37:38.111Z,14.50
2024-01-15T10:40:07.050Z,13.90
2024-01-15T10:42:35.281Z,14.00
2024-01-15T10:45:03.546Z,13.20
2024-01-15T10:47:32.117Z,13.40
2024-01-15T10:50:00.933Z,13.80
2024-01-15T10:52:30.673Z,12.40
2024-01-15T10:55:03.902Z,16.40
2024-01-15T10:57:35.230Z,16.40
2024-01-15T11:00:06.755Z,16.60
2024-01-15T11:02:37.360Z,16.00
2024-01-15T11:05:05.812Z,14.20
2024-01-15T11:07:34.027Z,14.90
2024-01-15T11:10:04.965Z,17.00
2024-01-15T11:12:33.735Z,17.00
2024-01-15T11:15:05.955Z,18.80
2024-01-15T11:18:04.677Z,19.50
2024-01-15T11:20:33.942Z,15.60
2024-01-15T11:23:02.164Z,14.70
2024-01-15T11:25:38.653Z,13.50
2024-01-15T11:28:07.051Z,14.10
2024-01-15T11:30:38.186Z,14.20
2024-01-15T11:33:08.937Z,14.90
2024-01-15T11:38:30.540Z,14.10
2024-01-15T11:41:00.912Z,13.90
2024-01-15T11:43:32.930Z,14.30
2024-01-15T11:46:05.087Z,13.10
2024-01-15T11:48:45.620Z,12.20
2024-01-15T11:51:14.325Z,13.00
2024-01-15T11:53:48.904Z,12.50
2024-01-15T11:56:18.298Z,12.60
2024-01-15T11:58:46.561Z,11.60
2024-01-15T12:01:15.055Z,11.40
2024-01-15T12:03:43.217Z,11.30
2024-01-15T12:06:12.569Z,11.00
2024-01-15T12:08:40.707Z,10.80
2024-01-15T12:11:15.204Z,11.30
2024-01-15T12:13:43.419Z,12.10
2024-01-15T12:16:11.746Z,12.50
2024-01-15T12:18:40.143Z,11.90
2024-01-15T12:21:09.242Z,11.40
2024-01-15T12:23:37.284Z,12.20
2024-01-15T12:26:05.461Z,11.70
2024-01-15T12:28:33.648Z,11.80
2024-01-15T12:31:06.678Z,11.20
2024-01-15T12:33:35.176Z,12.30
2024-01-15T12:36:03.497Z,13.10
2024-01-15T12:38:31.520Z,12.20
2024-01-15T12:41:02.111Z,12.10
2024-01-15T12:43:30.151Z,13.00
2024-01-15T12:45:58.402Z,12.00
2024-01-15T12:48:26.670Z,11.90
2024-01-15T12:50:55.009Z,12.20
2024-01-15T12:53:23.109Z,12.00
2024-01-15T12:55:51.168Z,12.00
2024-01-15T12:58:21.180Z,13.30
2024-01-15T13:00:50.061Z,11.80
2024-01-15T13:03:18.401Z,13.10
2024-01-15T13:05:47.056Z,13.90
2024-01-15T13:08:15.283Z,12.80
2024-01-15T13:10:43.648Z,11.30
2024-01-15T13:13:12.000Z,12.80
2024-01-15T13:15:40.367Z,13.40
2024-01-15T13:18:08.671Z,12.90
2024-01-15T13:20:36.812Z,13.00
2024-01-15T13:23:05.421Z,12.80
2024-01-15T13:25:35.101Z,13.20
2024-01-15T13:28:04.005Z,13.70
2024-01-15T13:30:32.725Z,13.80
2024-01-15T13:33:05.605Z,14.30
2024-01-15T13:35:34.108Z,13.70
2024-01-15T13:38:02.171Z,14.10
2024-01-15T13:40:30.361Z,12.80
2024-01-15T13:42:58.727Z,13.70
2024-01-15T13:45:26.971Z,12.70
2024-01-15T13:47:55.117Z,13.40
2024-01-15T13:50:25.898Z,13.80
2024-01-15T13:52:54.307Z,13.30
2024-01-15T13:55:22.532Z,13.00
2024-01-15T13:57:50.759Z,12.60
2024-01-15T14:00:21.395Z,11.20
2024-01-15T14:02:49.791Z,11.90
2024-01-15T14:05:18.561Z,12.40
2024-01-15T14:07:46.684Z,11.40
2024-01-15T14:10:14.856Z,10.50
2024-01-15T14:12:43.151Z,9.20
2024-01-15T14:15:11.308Z,10.30
2024-01-15T14:17:39.808Z,10.20
2024-01-15T14:20:10.552Z,8.80
2024-01-15T14:22:38.683Z,9.30
2024-01-15T14:25:06.965Z,9.80
2024-01-15T14:27:35.104Z,9.10
2024-01-15T14:30:04.353Z,8.60
2024-01-15T14:32:32.574Z,9.30
2024-01-15T14:35:01.538Z,9.40
2024-01-15T14:37:29.704Z,8.60
2024-01-15T14:39:57.933Z,7.30
2024-01-15T14:42:26.036Z,8.30
2024-01-15T14:44:54.239Z,8.10
2024-01-15T14:47:25.616Z,7.70
2024-01-15T14:49:53.979Z,7.40
2024-01-15T14:52:22.160Z,8.30
2024-01-15T14:54:51.007Z,6.90
2024-01-15T14:57:19.669Z,6.90
2024-01-15T14:59:48.172Z,6.50
2024-01-15T15:02:16.770Z,6.30
2024-01-15T15:04:47.420Z,6.90
2024-01-15T15:07:18.011Z,7.20
2024-01-15T15:09:46.288Z,7.00
2024-01-15T15:12:14.572Z,6.70
2024-01-15T15:14:52.082Z,7.80
2024-01-15T15:17:28.191Z,6.80
2024-01-15T15:19:56.999Z,7.70
2024-01-15T15:22:25.534Z,7.20
2024-01-15T15:24:54.109Z,6.70
2024-01-15T15:27:22.370Z,5.50
2024-01-15T15:29:52.076Z,5.10
2024-01-15T15:32:20.386Z,5.80
2024-01-15T15:34:48.839Z,5.50
2024-01-15T15:37:18.402Z,4.90
2024-01-15T15:39:47.122Z,4.60
2024-01-15T15:42:15.680Z,4.20
2024-01-15T15:44:47.854Z,5.00
2024-01-15T15:47:16.117Z,4.50
2024-01-15T15:49:44.517Z,4.60
2024-01-15T15:52:12.674Z,5.50
2024-01-15T15:54:41.359Z,6.00
2024-01-15T15:57:10.168Z,5.40
2024-01-15T15:59:38.260Z,5.50
2024-01-15T16:02:06.406Z,6.50
2024-01-15T16:04:34.770Z,10.40
2024-01-15T16:07:04.475Z,6.70
2024-01-15T16:09:32.664Z,5.30
2024-01-15T16:12:00.854Z,4.70
2024-01-15T16:14:28.995Z,6.00
2024-01-15T16:23:13.627Z,12.60
2024-01-15T16:23:27.170Z,13.70
2024-01-15T16:23:42.674Z,14.90
2024-01-15T16:25:23.538Z,13.60
2024-01-15T16:27:52.022Z,12.40
2024-01-15T16:30:29.142Z,13.70
2024-01-15T16:33:02.032Z,14.60
2024-01-15T16:35:30.365Z,14.70
2024-01-15T16:37:58.691Z,15.90
2024-01-15T16:40:26.898Z,16.60
2024-01-15T16:42:55.966Z,16.40
2024-01-15T16:45:24.089Z,16.40
2024-01-15T16:47:52.273Z,14.70
2024-01-15T16:50:20.524Z,13.40
2024-01-15T16:52:48.637Z,15.80
2024-01-15T16:55:16.933Z,15.30
2024-01-15T16:57:44.992Z,16.10
2024-01-15T17:00:13.532Z,15.90
2024-01-15T17:02:41.857Z,15.30
2024-01-15T17:05:11.045Z,15.20
2024-01-15T17:07:39.387Z,14.60
2024-01-15T17:10:07.996Z,15.00
2024-01-15T17:12:36.087Z,14.70
2024-01-15T17:15:04.440Z,13.70
2024-01-15T17:17:33.492Z,14.00
2024-01-15T17:20:01.715Z,14.10
2024-01-15T17:22:30.412Z,12.80
2024-01-15T17:24:59.336Z,13.40
2024-01-15T17:27:27.403Z,10.80
2024-01-15T17:29:56.813Z,10.10
2024-01-15T17:32:25.689Z,11.50
2024-01-15T17:34:54.644Z,12.40
2024-01-15T17:37:22.849Z,12.20
2024-01-15T17:39:50.990Z,12.70
2024-01-15T17:42:19.351Z,9.80
2024-01-15T17:44:48.464Z,6.30
2024-01-15T17:47:16.607Z,5.20
2024-01-15T17:49:45.037Z,4.00
2024-01-15T17:52:13.457Z,3.80
2024-01-15T17:54:41.531Z,2.90
2024-01-15T17:57:09.800Z,2.90
2024-01-15T17:59:37.949Z,2.70
2024-01-15T18:02:06.849Z,2.60
2024-01-15T18:04:35.151Z,1.80
2024-01-15T18:07:03.374Z,1.50
2024-01-15T18:09:31.460Z,1.70
2024-01-15T18:12:01.916Z,1.60
2024-01-15T18:14:30.524Z,1.50
2024-01-15T18:16:58.722Z,1.60
2024-01-15T18:19:26.946Z,1.40
2024-01-15T18:21:55.116Z,1.50
2024-01-15T18:24:23.204Z,1.40
2024-01-15T18:26:54.385Z,1.40
2024-01-15T18:29:23.374Z,1.40
2024-01-15T18:31:51.598Z,1.50
2024-01-15T18:34:19.814Z,1.60
2024-01-15T18:36:48.903Z,1.60
2024-01-15T18:39:18.184Z,1.40
2024-01-15T18:41:46.590Z,1.70
2024-01-15T18:44:14.967Z,1.40
2024-01-15T18:46:44.956Z,1.50
2024-01-15T18:49:14.043Z,1.60
2024-01-15T18:51:42.210Z,1.50
2024-01-15T18:54:10.345Z,1.60
2024-01-15T18:56:42.202Z,1.70
2024-01-15T18:59:10.668Z,1.40
2024-01-15T19:01:39.844Z,1.50
2024-01-15T19:04:08.553Z,1.70
2024-01-15T19:06:36.738Z,1.80
2024-01-15T19:09:05.070Z,1.70
2024-01-15T19:11:33.360Z,1.60
2024-01-15T19:14:01.595Z,1.70
2024-01-15T19:16:29.805Z,1.70
2024-01-15T19:18:58.995Z,1.70
2024-01-15T19:21:27.149Z,1.60
2024-01-15T19:23:55.211Z,1.60
2024-01-15T19:26:23.887Z,1.40
2024-01-15T19:28:52.160Z,1.70
2024-01-15T19:31:20.749Z,1.80
2024-01-15T19:33:49.438Z,1.50
2024-01-15T19:36:25.964Z,1.50
2024-01-15T19:38:54.573Z,1.70
2024-01-15T19:41:23.590Z,1.70
2024-01-15T19:43:51.700Z,1.60
2024-01-15T19:46:19.776Z,2.40
2024-01-15T19:48:48.815Z,1.80
2024-01-15T19:51:16.976Z,1.70
2024-01-15T19:53:45.191Z,1.50
2024-01-15T19:56:18.295Z,1.50
2024-01-15T19:58:46.642Z,1.50
2024-01-15T20:01:14.812Z,1.50
2024-01-15T20:03:45.520Z,1.60
2024-01-15T20:08:45.828Z,1.50
2024-01-15T20:11:15.610Z,1.60
2024-01-15T20:13:44.208Z,1.80
2024-01-15T20:16:14.040Z,1.70
2024-01-15T20:18:43.254Z,1.50
2024-01-15T20:21:11.669Z,1.60
2024-01-15T20:23:50.513Z,2.00
2024-01-15T20:26:24.023Z,2.20
2024-01-15T20:28:52.522Z,1.70
2024-01-15T20:31:20.563Z,2.00
2024-01-15T20:33:48.950Z,2.30
2024-01-15T20:36:17.279Z,2.30
2024-01-15T20:38:45.479Z,2.30
2024-01-15T20:41:13.715Z,2.30
2024-01-15T20:43:42.192Z,2.40
2024-01-15T20:46:10.223Z,2.30
2024-01-15T20:48:38.449Z,2.30
2024-01-15T20:51:06.770Z,2.50
2024-01-15T20:53:34.910Z,2.60
2024-01-15T20:56:03.133Z,2.70
2024-01-15T20:58:31.272Z,2.80
2024-01-15T21:00:59.664Z,3.00
2024-01-15T21:03:27.916Z,3.40
2024-01-15T21:05:56.261Z,3.10
2024-01-15T21:08:24.649Z,3.10
2024-01-15T21:10:52.933Z,3.70
2024-01-15T21:13:20.961Z,3.80
2024-01-15T21:15:49.185Z,3.50
2024-01-15T21:18:18.679Z,2.80
2024-01-15T21:20:46.953Z,2.70
2024-01-15T21:23:15.158Z,2.30
2024-01-15T21:25:43.333Z,1.80
2024-01-15T21:28:11.460Z,1.70
2024-01-15T21:30:39.607Z,1.80
2024-01-15T21:33:09.268Z,1.60
2024-01-15T21:35:37.779Z,1.50
2024-01-15T21:38:05.917Z,1.60
2024-01-15T21:40:34.538Z,1.50
2024-01-15T21:43:02.940Z,1.60
2024-01-15T21:45:31.212Z,1.60
2024-01-15T21:47:59.475Z,1.50
2024-01-15T21:50:27.603Z,1.70
2024-01-15T21:52:55.752Z,1.70
2024-01-15T21:55:23.895Z,1.80
2024-01-15T21:57:52.281Z,1.70
2024-01-15T22:00:20.562Z,1.90
2024-01-15T22:02:49.047Z,1.50
2024-01-15T22:05:18.467Z,1.70
2024-01-15T22:07:46.817Z,1.50
2024-01-15T22:10:15.770Z,1.60
2024-01-15T22:12:44.039Z,1.60
2024-01-15T22:15:14.291Z,1.50
2024-01-15T22:17:42.549Z,1.80
2024-01-15T22:20:11.341Z,1.60
2024-01-15T22:22:39.497Z,1.70
2024-01-15T22:25:07.891Z,1.80
2024-01-15T22:27:35.965Z,1.60
2024-01-15T22:30:04.607Z,1.70
2024-01-15T22:32:33.186Z,1.70
2024-01-15T22:35:01.681Z,1.70
2024-01-15T22:37:29.843Z,1.70
2024-01-15T22:39:57.937Z,1.70
2024-01-15T22:42:26.643Z,1.60
2024-01-15T22:44:55.019Z,1.80
2024-01-15T22:47:23.751Z,1.60
2024-01-15T22:49:52.976Z,1.70
2024-01-15T22:52:21.037Z,1.60
2024-01-15T22:54:50.485Z,1.80
2024-01-15T22:57:21.741Z,2.00
2024-01-15T22:59:49.894Z,2.00
2024-01-15T23:02:19.172Z,2.10
2024-01-15T23:04:47.640Z,2.30
2024-01-15T23:07:16.108Z,2.20
2024-01-15T23:09:44.254Z,2.40
2024-01-15T23:12:12.383Z,2.10
2024-01-15T23:14:40.524Z,2.00
2024-01-15T23:17:08.805Z,2.30
2024-01-15T23:19:37.021Z,2.20
2024-01-15T23:22:05.113Z,2.10
2024-01-15T23:24:33.270Z,2.10
2024-01-15T23:27:01.313Z,1.90
2024-01-15T23:29:29.522Z,2.00
2024-01-15T23:31:57.978Z,2.10
2024-01-15T23:34:26.271Z,2.00
2024-01-15T23:36:54.326Z,2.20
2024-01-15T23:39:22.864Z,2.00
2024-01-15T23:41:52.782Z,1.90
2024-01-15T23:44:21.014Z,1.80
2024-01-15T23:46:49.164Z,2.00
2024-01-15T23:49:17.282Z,1.80
2024-01-15T23:51:45.379Z,1.60
2024-01-15T23:54:13.606Z,1.70
2024-01-15T23:56:41.747Z,1.80
2024-01-15T23:59:10.317Z,1.70
